Time;durP1;ratioP1;P1;durP2;ratioP2;P2;SDS_P1;SDS_P2;PMS_P1;PMS_P2;Temp;Humidity;BMP_temperature;BMP_pressure;BME280_temperature;BME280_humidity;BME280_pressure;Samples;Min_cycle;Max_cycle;Signal;HPM_P1;HPM_P2
2021/10/31 00:01:09;;;;;;;16.52;11.23;;;;;;;12.50;65.04;100436.28;5049784;28;20040;-37
2021/10/31 00:03:35;;;;;;;19.08;11.00;;;;;;;12.37;64.91;100441.56;5049767;28;20041;-38
2021/10/31 00:06:01;;;;;;;17.73;11.55;;;;;;;12.21;65.76;100439.25;5049785;28;20047;-37
2021/10/31 00:08:26;;;;;;;16.38;11.00;;;;;;;12.36;65.88;100447.13;5049394;28;20074;-37
2021/10/31 00:10:51;;;;;;;16.90;11.05;;;;;;;12.51;65.25;100440.63;5049414;28;20033;-38
2021/10/31 00:13:17;;;;;;;18.48;12.00;;;;;;;12.34;65.83;100441.97;5049786;28;20031;-38
2021/10/31 00:15:42;;;;;;;16.27;10.77;;;;;;;12.37;65.98;100441.56;5049540;28;20062;-38
2021/10/31 00:18:08;;;;;;;16.35;11.60;;;;;;;13.08;62.99;100443.06;5049964;28;20111;-38
2021/10/31 00:20:34;;;;;;;15.57;10.82;;;;;;;12.50;64.94;100438.94;5048842;28;20036;-39
2021/10/31 00:22:59;;;;;;;20.17;11.30;;;;;;;12.23;66.07;100435.34;5048867;28;20554;-38
2021/10/31 00:25:25;;;;;;;17.92;11.07;;;;;;;12.13;66.25;100435.72;5049481;28;20032;-37
2021/10/31 00:27:50;;;;;;;17.40;11.18;;;;;;;12.15;66.77;100432.00;5049517;28;20116;-37
2021/10/31 00:30:16;;;;;;;17.30;11.02;;;;;;;12.15;66.02;100429.34;5049221;28;20025;-37
2021/10/31 00:32:41;;;;;;;17.48;11.20;;;;;;;12.16;66.40;100423.81;5049252;28;20098;-37
2021/10/31 00:35:07;;;;;;;17.63;11.95;;;;;;;12.07;66.45;100430.31;5049852;28;20032;-38
2021/10/31 00:37:33;;;;;;;16.92;10.98;;;;;;;12.00;66.83;100435.63;5049613;28;20036;-37
2021/10/31 00:39:58;;;;;;;16.63;11.07;;;;;;;12.48;65.51;100421.50;5048182;28;20361;-38
2021/10/31 00:42:24;;;;;;;15.45;10.82;;;;;;;12.38;65.37;100421.88;5049241;28;20017;-38
2021/10/31 00:44:49;;;;;;;17.83;10.95;;;;;;;12.02;66.92;100430.91;5049145;28;20071;-37
2021/10/31 00:47:15;;;;;;;19.70;11.43;;;;;;;11.90;67.83;100419.16;5048973;28;20036;-37
2021/10/31 00:49:40;;;;;;;15.93;10.95;;;;;;;11.85;67.32;100426.88;5047556;28;20115;-37
2021/10/31 00:52:06;;;;;;;16.98;11.27;;;;;;;11.96;67.67;100421.03;5047582;28;20061;-38
2021/10/31 00:54:32;;;;;;;16.38;11.52;;;;;;;12.17;66.24;100424.66;5049890;28;20097;-37
2021/10/31 00:56:57;;;;;;;16.92;11.73;;;;;;;12.14;66.88;100415.19;5052152;28;20463;-37
2021/10/31 00:59:23;;;;;;;17.63;11.75;;;;;;;12.66;64.66;100423.59;5051931;28;20048;-37
2021/10/31 01:01:51;;;;;;;16.73;11.45;;;;;;;12.13;65.72;100416.22;5053264;28;20397;-37
2021/10/31 01:04:20;;;;;;;16.27;11.35;;;;;;;12.21;66.51;100420.56;5053255;28;20032;-37
2021/10/31 01:06:58;;;;;;;19.55;11.98;;;;;;;11.77;68.26;100425.19;5053260;28;20083;-37
2021/10/31 01:09:50;;;;;;;17.85;11.38;;;;;;;11.79;67.88;100420.50;5053416;28;20033;-37
2021/10/31 01:12:37;;;;;;;20.02;12.25;;;;;;;11.85;67.94;100418.88;5053228;28;20052;-37
2021/10/31 01:15:30;;;;;;;18.80;12.07;;;;;;;12.06;67.57;100412.69;5053450;28;20029;-37
2021/10/31 01:18:44;;;;;;;19.13;12.85;;;;;;;12.23;66.83;100415.84;5051928;28;20025;-37
2021/10/31 01:21:17;;;;;;;18.80;12.30;;;;;;;12.61;65.13;100416.22;5044000;28;20041;-37
2021/10/31 01:23:50;;;;;;;18.08;12.30;;;;;;;12.18;66.35;100404.94;5052807;28;20029;-37
2021/10/31 01:26:53;;;;;;;18.02;12.18;;;;;;;11.82;68.49;100411.25;5051395;28;20051;-37
2021/10/31 01:29:40;;;;;;;18.48;12.32;;;;;;;11.63;69.15;100405.63;5052457;28;20078;-37
2021/10/31 01:32:27;;;;;;;18.42;11.82;;;;;;;11.64;69.20;100414.44;5050233;28;20068;-39
2021/10/31 01:35:11;;;;;;;19.42;12.05;;;;;;;11.86;68.43;100412.50;5052369;28;20037;-39
2021/10/31 01:38:15;;;;;;;18.77;12.40;;;;;;;12.33;66.51;100408.28;5052484;28;20029;-38
2021/10/31 01:40:50;;;;;;;19.95;11.63;;;;;;;12.38;66.01;100403.19;5051154;28;20099;-38
2021/10/31 01:43:38;;;;;;;20.83;12.32;;;;;;;12.13;67.38;100402.88;5050984;28;20078;-39
2021/10/31 01:46:16;;;;;;;19.40;12.23;;;;;;;11.60;68.75;100407.84;5036772;28;20543;-39
2021/10/31 01:49:00;;;;;;;18.48;11.70;;;;;;;11.70;69.16;100405.66;5052203;28;20114;-39
2021/10/31 01:51:48;;;;;;;17.15;11.90;;;;;;;11.73;69.34;100405.28;5052017;28;20040;-38
2021/10/31 01:54:19;;;;;;;20.58;12.50;;;;;;;11.62;69.20;100405.81;5050989;28;20063;-39
2021/10/31 01:56:45;;;;;;;19.58;12.82;;;;;;;11.54;69.13;100394.28;5035113;28;20127;-39
2021/10/31 01:59:16;;;;;;;21.05;12.50;;;;;;;11.49;70.31;100388.69;5051162;28;20029;-38
2021/10/31 02:01:42;;;;;;;20.08;12.68;;;;;;;11.69;69.44;100399.50;5050833;28;20017;-39
2021/10/31 02:04:09;;;;;;;22.40;12.95;;;;;;;11.63;69.56;100397.63;5050886;28;20040;-39
2021/10/31 02:06:42;;;;;;;18.83;13.00;;;;;;;11.52;69.36;100384.81;5051902;28;20043;-39
2021/10/31 02:09:07;;;;;;;19.63;12.10;;;;;;;11.37;69.59;100384.09;5050370;28;20092;-38
2021/10/31 02:11:36;;;;;;;18.95;12.32;;;;;;;11.80;68.46;100399.97;5050612;28;20108;-38
2021/10/31 02:14:03;;;;;;;18.63;11.98;;;;;;;11.85;68.12;100401.03;5050414;28;20024;-38
2021/10/31 02:16:29;;;;;;;19.58;11.88;;;;;;;11.67;69.69;100395.38;5033945;28;20120;-38
2021/10/31 02:19:02;;;;;;;22.63;13.43;;;;;;;11.70;69.45;100395.81;5050810;28;20025;-38
2021/10/31 02:21:27;;;;;;;19.85;12.52;;;;;;;11.70;69.14;100397.66;5051299;28;20536;-38
2021/10/31 02:23:53;;;;;;;19.55;12.90;;;;;;;11.90;68.21;100401.31;5017160;28;20159;-38
2021/10/31 02:26:18;;;;;;;19.25;12.68;;;;;;;11.80;69.58;100398.13;5050048;28;20040;-38
2021/10/31 02:28:57;;;;;;;19.25;12.98;;;;;;;11.58;69.97;100392.03;5051391;28;20036;-37
2021/10/31 02:31:23;;;;;;;20.65;13.02;;;;;;;11.46;70.59;100394.41;5051182;28;20089;-39
2021/10/31 02:33:49;;;;;;;22.30;13.63;;;;;;;11.43;70.05;100393.97;5051384;28;20045;-38
2021/10/31 02:36:14;;;;;;;23.42;13.52;;;;;;;11.33;71.21;100392.47;5051876;28;20035;-37
2021/10/31 02:38:40;;;;;;;19.02;13.13;;;;;;;11.25;70.04;100367.78;5051995;28;20025;-38
2021/10/31 02:41:05;;;;;;;22.60;13.20;;;;;;;11.16;71.33;100383.09;5051731;28;20055;-38
2021/10/31 02:43:31;;;;;;;22.48;13.38;;;;;;;11.39;70.68;100393.53;5050413;28;20024;-37
2021/10/31 02:45:56;;;;;;;19.15;13.02;;;;;;;11.41;70.32;100382.69;5051828;28;20190;-38
2021/10/31 02:48:22;;;;;;;22.15;13.65;;;;;;;11.43;70.46;100376.13;5051757;28;20024;-37
2021/10/31 02:50:47;;;;;;;23.38;13.82;;;;;;;11.33;71.23;100381.00;5034548;28;20403;-37
2021/10/31 02:54:02;;;;;;;19.95;13.40;;;;;;;11.65;70.19;100390.25;5051715;28;20021;-37
2021/10/31 02:57:05;;;;;;;23.33;13.85;;;;;;;11.41;70.65;100394.16;5049838;28;20106;-37
2021/10/31 02:59:43;;;;;;;23.77;15.00;;;;;;;11.41;70.27;100382.69;4969196;28;20095;-37
2021/10/31 03:02:09;;;;;;;21.77;14.40;;;;;;;11.40;70.20;100387.16;5051368;28;20091;-37
2021/10/31 03:04:35;;;;;;;24.17;14.93;;;;;;;11.26;70.75;100388.91;5050271;28;20033;-37
2021/10/31 03:07:01;;;;;;;23.38;14.80;;;;;;;11.26;70.86;100388.91;5050145;28;20029;-37
2021/10/31 03:09:27;;;;;;;27.65;15.02;;;;;;;11.10;71.33;100381.19;5049880;28;20100;-38
2021/10/31 03:12:03;;;;;;;26.40;15.00;;;;;;;11.17;71.59;100391.91;5033465;28;20108;-37
2021/10/31 03:14:29;;;;;;;25.13;15.40;;;;;;;11.19;71.70;100392.53;5051423;28;20492;-37
2021/10/31 03:16:54;;;;;;;23.80;15.15;;;;;;;11.33;70.73;100392.47;5050799;28;20057;-37
2021/10/31 03:19:20;;;;;;;23.95;15.55;;;;;;;11.18;71.69;100389.06;5051346;28;20063;-37
2021/10/31 03:21:46;;;;;;;23.60;15.50;;;;;;;11.17;71.30;100390.06;5051138;28;20029;-37
2021/10/31 03:24:11;;;;;;;26.58;15.90;;;;;;;11.23;70.94;100391.13;5051399;28;20058;-37
2021/10/31 03:26:37;;;;;;;22.23;14.18;;;;;;;10.99;71.73;100390.53;5050346;28;20029;-38
2021/10/31 03:29:02;;;;;;;25.70;15.00;;;;;;;11.07;71.55;100395.72;5051114;28;20118;-37
2021/10/31 03:31:27;;;;;;;22.58;14.43;;;;;;;11.32;71.54;100401.47;5050648;28;20083;-37
2021/10/31 03:33:53;;;;;;;22.02;14.48;;;;;;;11.13;71.21;100392.28;5050545;28;20460;-37
2021/10/31 03:36:18;;;;;;;23.30;14.05;;;;;;;11.23;71.37;100389.31;5050905;28;20025;-37
2021/10/31 03:38:44;;;;;;;35.22;23.00;;;;;;;11.32;71.34;100401.47;5051040;28;20032;-38
2021/10/31 03:41:09;;;;;;;42.80;24.58;;;;;;;11.24;70.72;100396.28;5051335;28;20017;-38
2021/10/31 03:43:35;;;;;;;35.75;18.45;;;;;;;11.16;71.61;100391.09;5050612;28;20094;-37
2021/10/31 03:46:00;;;;;;;71.13;36.33;;;;;;;11.11;72.08;100399.63;5050673;28;20112;-37
2021/10/31 03:48:26;;;;;;;26.13;16.80;;;;;;;11.33;71.08;100408.47;5051109;28;20025;-37
2021/10/31 03:50:51;;;;;;;22.08;14.18;;;;;;;11.22;70.87;100400.97;5050526;28;20668;-37
2021/10/31 03:53:17;;;;;;;21.58;13.93;;;;;;;11.33;70.97;100400.47;5050485;28;20112;-38
2021/10/31 03:55:42;;;;;;;24.13;14.68;;;;;;;11.10;72.09;100391.84;5050736;28;20020;-37
2021/10/31 03:58:08;;;;;;;23.25;14.13;;;;;;;11.19;71.96;100390.69;5050765;28;20029;-38
2021/10/31 04:00:34;;;;;;;21.70;14.13;;;;;;;11.35;71.73;100394.94;5050817;28;20059;-37
2021/10/31 04:02:59;;;;;;;25.83;15.15;;;;;;;11.06;72.34;100390.56;5051214;28;20037;-37
2021/10/31 04:05:25;;;;;;;24.17;14.77;;;;;;;11.33;70.86;100395.13;5049401;28;20373;-37
2021/10/31 04:07:50;;;;;;;24.90;15.40;;;;;;;11.10;71.65;100382.03;5050331;28;20041;-37
2021/10/31 04:10:16;;;;;;;28.15;15.30;;;;;;;11.29;70.60;100387.69;5050535;28;20037;-37
2021/10/31 04:12:41;;;;;;;23.38;15.48;;;;;;;11.17;70.66;100390.06;5050198;28;20028;-37
2021/10/31 04:15:07;;;;;;;25.90;15.60;;;;;;;11.16;70.91;100391.09;5050327;28;20025;-37
2021/10/31 04:17:32;;;;;;;25.30;15.75;;;;;;;11.14;71.15;100380.63;5050834;28;20189;-37
2021/10/31 04:19:59;;;;;;;24.60;15.60;;;;;;;11.17;71.48;100386.59;5050614;28;20048;-37
2021/10/31 04:22:25;;;;;;;21.92;14.68;;;;;;;11.26;71.26;100388.09;5050366;28;20025;-37
2021/10/31 04:24:50;;;;;;;25.90;15.38;;;;;;;11.24;71.61;100382.97;5050758;28;20031;-37
2021/10/31 04:27:16;;;;;;;22.17;15.00;;;;;;;10.94;72.47;100388.41;5050438;28;20051;-37
2021/10/31 04:29:41;;;;;;;25.48;15.50;;;;;;;10.76;73.74;100378.22;5050353;28;20033;-37
2021/10/31 04:32:07;;;;;;;24.17;15.32;;;;;;;11.00;72.66;100381.50;5049862;28;20053;-37
2021/10/31 04:34:32;;;;;;;22.58;14.55;;;;;;;10.86;73.59;100372.56;5050761;28;20048;-39
2021/10/31 04:36:59;;;;;;;23.88;14.52;;;;;;;10.92;73.04;100374.47;5050477;28;20492;-38
2021/10/31 04:39:25;;;;;;;22.52;15.10;;;;;;;10.91;72.83;100367.50;5050365;28;20075;-38
2021/10/31 04:41:52;;;;;;;23.90;14.60;;;;;;;10.97;73.08;100373.91;5032678;28;20542;-38
2021/10/31 04:44:17;;;;;;;23.85;15.57;;;;;;;11.06;72.07;100370.13;5050319;28;20048;-38
2021/10/31 04:46:43;;;;;;;25.13;15.43;;;;;;;10.99;73.10;100373.72;5050450;28;20021;-38
2021/10/31 04:49:09;;;;;;;23.92;15.35;;;;;;;10.91;72.80;100382.66;5049865;28;20499;-39
2021/10/31 04:51:34;;;;;;;28.67;16.33;;;;;;;10.80;73.04;100377.84;5049681;28;20025;-37
2021/10/31 04:54:00;;;;;;;26.98;16.80;;;;;;;10.67;74.03;100375.88;5049928;28;20032;-37
2021/10/31 04:56:25;;;;;;;22.92;14.88;;;;;;;11.02;72.30;100368.00;5048844;28;20035;-37
2021/10/31 04:58:51;;;;;;;23.33;15.30;;;;;;;10.99;73.26;100368.41;5049659;28;20025;-37
2021/10/31 05:01:17;;;;;;;23.90;15.40;;;;;;;11.10;71.69;100366.03;5050457;28;20439;-37
2021/10/31 05:03:43;;;;;;;26.15;16.13;;;;;;;11.08;72.30;100372.56;5049922;28;20437;-37
2021/10/31 05:06:09;;;;;;;27.23;15.38;;;;;;;11.04;72.09;100376.63;5049807;28;20025;-38
2021/10/31 05:08:34;;;;;;;28.27;16.50;;;;;;;10.88;72.38;100369.72;5049872;28;20044;-38
2021/10/31 05:11:00;;;;;;;25.35;16.48;;;;;;;10.89;73.44;100366.88;5050222;28;20124;-37
2021/10/31 05:13:25;;;;;;;27.60;15.85;;;;;;;11.20;72.02;100372.88;5049961;28;20021;-38
2021/10/31 05:15:50;;;;;;;26.15;15.93;;;;;;;10.96;72.07;100375.72;5050097;28;20649;-38
2021/10/31 05:18:16;;;;;;;25.35;16.25;;;;;;;11.04;72.01;100366.81;5049884;28;20025;-37
2021/10/31 05:20:42;;;;;;;41.72;24.15;;;;;;;11.37;76.23;100378.78;5049377;28;20384;-36
2021/10/31 05:23:07;;;;;;;43.92;27.45;;;;;;;11.22;72.20;100376.19;5040979;28;20471;-37
2021/10/31 05:25:33;;;;;;;24.55;16.02;;;;;;;11.11;72.46;100375.66;5050014;28;20444;-49
2021/10/31 05:27:58;;;;;;;25.73;15.43;;;;;;;11.26;72.78;100372.13;5049672;28;20025;-50
2021/10/31 05:30:24;;;;;;;39.35;22.20;;;;;;;12.05;85.22;100379.84;5049736;28;20020;-47
2021/10/31 05:32:51;;;;;;;44.90;27.85;;;;;;;12.61;68.04;100372.69;5049537;28;20493;-49
2021/10/31 05:35:17;;;;;;;44.15;25.50;;;;;;;12.49;67.64;100375.09;5049619;28;20028;-49
2021/10/31 05:37:45;;;;;;;35.75;21.70;;;;;;;11.73;70.38;100381.28;5049858;28;20025;-50
2021/10/31 05:40:12;;;;;;;31.60;16.85;;;;;;;11.86;69.82;100375.19;5051138;28;20033;-49
2021/10/31 05:42:38;;;;;;;24.17;15.85;;;;;;;11.82;69.78;100374.78;5053436;28;20322;-49
2021/10/31 05:45:05;;;;;;;24.30;16.02;;;;;;;11.82;68.90;100380.09;5053242;28;20465;-47
2021/10/31 05:47:31;;;;;;;25.30;14.95;;;;;;;11.59;69.69;100380.34;5053141;28;20041;-48
2021/10/31 05:49:57;;;;;;;25.85;16.25;;;;;;;11.55;71.15;100377.25;5053074;28;20024;-48
2021/10/31 05:52:22;;;;;;;26.33;16.33;;;;;;;11.68;71.60;100376.50;5051094;28;20477;-51
2021/10/31 05:54:48;;;;;;;24.50;15.43;;;;;;;11.50;71.37;100377.03;5051284;28;20060;-50
2021/10/31 05:57:13;;;;;;;26.58;15.27;;;;;;;11.74;69.42;100372.25;5051493;28;20028;-48
2021/10/31 05:59:38;;;;;;;25.27;14.73;;;;;;;11.85;69.46;100373.56;5052664;28;20481;-48
2021/10/31 06:02:08;;;;;;;28.38;16.25;;;;;;;11.89;70.03;100369.47;5052612;28;20045;-50
2021/10/31 06:04:33;;;;;;;26.02;16.42;;;;;;;11.88;69.30;100375.81;5052656;28;20108;-50
2021/10/31 06:06:59;;;;;;;28.13;17.52;;;;;;;11.85;70.07;100384.22;5052401;28;20021;-51
2021/10/31 06:09:25;;;;;;;51.33;34.35;;;;;;;11.99;71.18;100377.94;5052568;28;20025;-51
2021/10/31 06:11:50;;;;;;;48.55;31.35;;;;;;;12.06;68.75;100378.81;5052624;28;20354;-51
2021/10/31 06:14:16;;;;;;;57.72;37.85;;;;;;;11.90;70.20;100384.50;5052124;28;20025;-50
2021/10/31 06:16:41;;;;;;;49.55;28.27;;;;;;;11.89;69.93;100382.81;5052259;28;20025;-38
2021/10/31 06:19:07;;;;;;;44.35;28.55;;;;;;;12.18;68.68;100383.59;5050863;28;20170;-38
2021/10/31 06:21:32;;;;;;;45.10;28.08;;;;;;;11.95;68.57;100389.22;5052244;28;20504;-39
2021/10/31 06:23:58;;;;;;;65.05;41.03;;;;;;;11.92;69.58;100390.44;5052389;28;20028;-39
2021/10/31 06:26:23;;;;;;;34.45;21.20;;;;;;;12.01;68.53;100396.44;5052279;28;20445;-38
2021/10/31 06:28:49;;;;;;;37.38;22.88;;;;;;;11.96;69.55;100391.69;5052524;28;20052;-39
2021/10/31 06:31:14;;;;;;;32.72;21.65;;;;;;;12.01;68.60;100391.91;5052032;28;20443;-38
2021/10/31 06:33:40;;;;;;;35.63;19.88;;;;;;;11.98;68.64;100386.19;5051546;28;20060;-39
2021/10/31 06:36:05;;;;;;;28.58;18.08;;;;;;;12.23;67.93;100402.50;5052049;28;20510;-38
2021/10/31 06:38:31;;;;;;;29.35;19.10;;;;;;;12.27;67.85;100393.09;5052049;28;20025;-38
2021/10/31 06:40:56;;;;;;;50.22;29.88;;;;;;;12.30;67.72;100390.84;5051896;28;20032;-38
2021/10/31 06:43:22;;;;;;;52.10;32.25;;;;;;;12.23;68.03;100389.16;5051672;28;20029;-38
2021/10/31 06:45:48;;;;;;;49.63;29.42;;;;;;;12.16;68.01;100386.47;5052066;28;20384;-38
2021/10/31 06:48:14;;;;;;;35.25;19.88;;;;;;;12.04;68.38;100391.53;5051825;28;20028;-38
2021/10/31 06:50:39;;;;;;;30.85;17.77;;;;;;;11.92;68.76;100393.94;5051734;28;20025;-38
2021/10/31 06:53:05;;;;;;;27.85;17.60;;;;;;;12.02;68.71;100387.44;5051950;28;20021;-38
2021/10/31 06:55:31;;;;;;;25.83;16.65;;;;;;;12.35;67.11;100398.25;5051554;28;20464;-38
2021/10/31 06:57:57;;;;;;;26.17;15.95;;;;;;;12.32;67.10;100390.66;5051655;28;20094;-38
2021/10/31 07:00:23;;;;;;;25.70;15.65;;;;;;;12.27;66.30;100393.09;5042185;28;20465;-38
2021/10/31 07:02:48;;;;;;;24.92;15.60;;;;;;;12.28;67.35;100397.38;5033579;28;20040;-38
2021/10/31 07:05:14;;;;;;;24.60;15.93;;;;;;;12.15;67.98;100383.97;5034094;28;20029;-38
2021/10/31 07:07:39;;;;;;;26.77;15.48;;;;;;;12.04;67.55;100390.72;5031352;28;20087;-38
2021/10/31 07:10:05;;;;;;;23.38;14.98;;;;;;;12.04;67.03;100390.72;5049661;28;20079;-38
2021/10/31 07:12:32;;;;;;;25.17;15.13;;;;;;;12.30;67.44;100390.84;5051097;28;20036;-38
2021/10/31 07:14:57;;;;;;;23.95;14.40;;;;;;;12.11;66.58;100394.25;5050611;28;20473;-38
2021/10/31 07:17:23;;;;;;;22.90;14.25;;;;;;;12.46;66.09;100395.00;5051042;28;20025;-37
2021/10/31 07:19:48;;;;;;;25.15;15.32;;;;;;;12.39;65.20;100391.47;5045502;28;20036;-37
2021/10/31 07:22:17;;;;;;;22.23;14.25;;;;;;;12.27;65.47;100391.22;5048433;28;20025;-38
2021/10/31 07:24:42;;;;;;;22.80;13.85;;;;;;;12.19;66.15;100396.75;5050556;28;20582;-37
2021/10/31 07:27:08;;;;;;;23.40;14.43;;;;;;;12.48;65.24;100379.59;5051155;28;20024;-38
2021/10/31 07:29:33;;;;;;;26.77;14.50;;;;;;;12.39;65.11;100390.66;5049018;28;20484;-37
2021/10/31 07:31:58;;;;;;;22.00;13.65;;;;;;;12.24;65.91;100385.47;5034502;28;20168;-38
2021/10/31 07:34:26;;;;;;;21.60;14.45;;;;;;;12.28;65.42;100384.03;5030242;28;20041;-38
2021/10/31 07:36:52;;;;;;;23.48;14.90;;;;;;;12.57;64.35;100376.78;5046824;28;20031;-38
2021/10/31 07:39:18;;;;;;;25.05;16.27;;;;;;;12.51;64.26;100373.06;5043679;28;20119;-38
2021/10/31 07:41:44;;;;;;;24.45;14.98;;;;;;;12.41;64.77;100372.59;5030523;28;20432;-38
2021/10/31 07:44:10;;;;;;;21.75;14.18;;;;;;;12.71;64.31;100381.09;5030830;28;20446;-38
2021/10/31 07:46:35;;;;;;;23.00;13.50;;;;;;;12.60;64.19;100376.34;5030216;28;20025;-37
2021/10/31 07:49:02;;;;;;;23.67;14.07;;;;;;;12.52;64.63;100369.34;5030446;28;20057;-38
2021/10/31 07:51:27;;;;;;;23.88;14.63;;;;;;;12.90;65.10;100380.31;5030560;28;20029;-38
2021/10/31 07:53:53;;;;;;;23.55;14.93;;;;;;;13.00;63.04;100377.25;5030182;28;20557;-37
2021/10/31 07:56:21;;;;;;;23.63;14.60;;;;;;;12.85;63.47;100372.13;5030477;28;20479;-38
2021/10/31 07:58:54;;;;;;;23.20;14.50;;;;;;;12.95;62.93;100376.25;5030306;28;20441;-38
2021/10/31 08:01:20;;;;;;;22.85;15.15;;;;;;;12.84;62.65;100366.97;5030514;28;20087;-38
2021/10/31 08:03:46;;;;;;;24.35;15.40;;;;;;;12.72;63.97;100377.44;5041418;28;20110;-38
2021/10/31 08:06:11;;;;;;;24.63;15.93;;;;;;;12.53;63.94;100371.00;5050050;28;20326;-38
2021/10/31 08:08:37;;;;;;;23.58;15.02;;;;;;;12.52;64.01;100364.00;5049732;28;20032;-38
2021/10/31 08:11:02;;;;;;;22.88;14.68;;;;;;;12.61;64.00;100370.81;5049480;28;20020;-37
2021/10/31 08:13:28;;;;;;;26.90;16.02;;;;;;;12.60;63.91;100371.00;5049307;28;20021;-37
2021/10/31 08:15:54;;;;;;;27.27;16.73;;;;;;;12.59;63.55;100369.38;5047835;28;20025;-38
2021/10/31 08:18:20;;;;;;;27.15;17.23;;;;;;;12.56;64.38;100359.91;5049223;28;20020;-38
2021/10/31 08:20:45;;;;;;;29.27;18.73;;;;;;;12.68;63.92;100368.19;5048327;28;20452;-38
2021/10/31 08:23:11;;;;;;;33.85;17.75;;;;;;;12.84;63.41;100367.78;5049262;28;20522;-38
2021/10/31 08:25:37;;;;;;;30.30;17.30;;;;;;;12.77;64.32;100369.63;5048555;28;20024;-38
2021/10/31 08:28:04;;;;;;;26.70;17.00;;;;;;;13.41;62.49;100367.44;5044919;28;20025;-48
2021/10/31 08:30:31;;;;;;;27.52;16.48;;;;;;;13.23;62.61;100371.53;5048502;28;20027;-51
2021/10/31 08:32:58;;;;;;;24.50;16.70;;;;;;;12.91;64.06;100370.47;5047897;28;20055;-49
2021/10/31 08:35:24;;;;;;;32.63;17.77;;;;;;;13.59;61.99;100372.13;5044808;28;20052;-48
2021/10/31 08:37:49;;;;;;;27.63;16.95;;;;;;;13.63;61.25;100371.53;5045320;28;20056;-50
2021/10/31 08:40:15;;;;;;;25.02;16.08;;;;;;;13.26;62.24;100365.75;5047473;28;20043;-51
2021/10/31 08:42:40;;;;;;;25.92;16.42;;;;;;;13.75;61.31;100368.22;5048475;28;20033;-51
2021/10/31 08:45:08;;;;;;;27.83;16.33;;;;;;;14.03;59.67;100363.41;5048114;28;20017;-52
2021/10/31 08:47:33;;;;;;;25.40;15.73;;;;;;;13.70;60.43;100363.47;5030139;28;20402;-52
2021/10/31 08:50:00;;;;;;;28.48;17.40;;;;;;;13.58;72.94;100367.84;5048135;28;20490;-52
2021/10/31 08:52:25;;;;;;;39.72;22.50;;;;;;;14.74;80.60;100364.34;5048408;28;20032;-50
2021/10/31 08:54:51;;;;;;;25.90;16.70;;;;;;;15.03;62.27;100356.72;5049320;28;20025;-50
2021/10/31 08:57:16;;;;;;;27.50;17.38;;;;;;;15.04;64.90;100355.66;5049438;28;20029;-53
2021/10/31 08:59:41;;;;;;;29.15;16.42;;;;;;;14.95;60.15;100351.63;5049140;28;20112;-51
2021/10/31 09:02:07;;;;;;;25.77;16.42;;;;;;;14.88;60.58;100348.19;5049012;28;20021;-51
2021/10/31 09:04:33;;;;;;;23.65;14.85;;;;;;;14.59;58.68;100347.75;5048829;28;20350;-50
2021/10/31 09:06:59;;;;;;;25.83;15.82;;;;;;;14.48;59.33;100339.31;5048750;28;20032;-48
2021/10/31 09:09:24;;;;;;;28.92;15.20;;;;;;;14.38;60.63;100338.97;5049079;28;20033;-49
2021/10/31 09:11:50;;;;;;;25.38;15.23;;;;;;;15.27;62.40;100341.69;5048079;28;20033;-49
2021/10/31 09:14:15;;;;;;;28.05;18.17;;;;;;;15.39;56.38;100339.09;5048381;28;20017;-49
2021/10/31 09:16:41;;;;;;;21.50;14.30;;;;;;;15.03;56.83;100325.38;5052449;28;20104;-52
2021/10/31 09:19:07;;;;;;;23.50;14.23;;;;;;;14.41;58.58;100333.19;5051822;28;20110;-50
2021/10/31 09:21:32;;;;;;;23.38;15.23;;;;;;;14.13;59.38;100328.16;5052072;28;20033;-52
2021/10/31 09:23:58;;;;;;;25.30;14.43;;;;;;;13.91;60.22;100324.13;5052282;28;20527;-52
2021/10/31 09:26:23;;;;;;;21.38;15.10;;;;;;;13.95;59.86;100326.16;5052381;28;20104;-52
2021/10/31 09:28:49;;;;;;;27.00;15.38;;;;;;;13.89;59.99;100316.31;5051236;28;20167;-39
2021/10/31 09:31:15;;;;;;;21.48;14.35;;;;;;;13.63;61.26;100318.03;5052649;28;20053;-37
2021/10/31 09:33:41;;;;;;;19.55;13.93;;;;;;;13.78;61.51;100319.63;5052713;28;20187;-38
2021/10/31 09:36:07;;;;;;;20.30;14.02;;;;;;;13.82;60.62;100307.47;5052472;28;20431;-38
2021/10/31 09:38:33;;;;;;;23.30;14.13;;;;;;;13.65;60.73;100307.13;5052152;28;20036;-38
2021/10/31 09:40:58;;;;;;;25.58;14.80;;;;;;;14.13;59.29;100305.94;5051279;28;20032;-38
2021/10/31 09:43:28;;;;;;;19.90;12.90;;;;;;;14.11;58.33;100302.63;5051011;28;20013;-38
2021/10/31 09:45:55;;;;;;;23.17;13.80;;;;;;;14.37;58.20;100296.34;5052267;28;20035;-38
2021/10/31 09:48:20;;;;;;;24.10;14.27;;;;;;;14.77;56.41;100288.06;5050819;28;20067;-38
2021/10/31 09:50:49;;;;;;;27.45;14.88;;;;;;;14.66;57.09;100286.94;5049925;28;20083;-37
2021/10/31 09:53:17;;;;;;;22.33;14.15;;;;;;;14.30;58.20;100283.00;5032871;28;20088;-38
2021/10/31 09:55:43;;;;;;;25.75;14.25;;;;;;;14.16;58.02;100286.75;5031952;28;20539;-38
2021/10/31 09:58:17;;;;;;;23.55;14.00;;;;;;;14.28;58.08;100283.22;5031559;28;20029;-38
2021/10/31 10:00:48;;;;;;;20.00;13.52;;;;;;;14.37;58.25;100281.06;5028692;28;20540;-38
2021/10/31 10:06:16;;;;;;;22.02;13.52;;;;;;;14.30;58.18;100271.44;5029981;28;20029;-38
2021/10/31 10:08:59;;;;;;;27.77;15.75;;;;;;;14.45;57.77;100266.63;5053471;28;20183;-38
2021/10/31 10:11:27;;;;;;;21.55;14.02;;;;;;;14.35;57.78;100264.41;5063512;28;20068;-38
2021/10/31 10:13:53;;;;;;;22.48;14.35;;;;;;;14.61;57.47;100257.28;5052967;28;20106;-38
2021/10/31 10:16:21;;;;;;;23.90;14.30;;;;;;;14.56;57.63;100249.03;5065353;28;20021;-38
2021/10/31 10:18:46;;;;;;;22.02;13.90;;;;;;;14.68;56.61;100250.03;5058080;28;20032;-38
2021/10/31 10:21:36;;;;;;;17.85;12.70;;;;;;;14.80;55.48;100245.59;5058365;28;20029;-39
2021/10/31 10:24:06;;;;;;;19.08;11.85;;;;;;;15.12;54.64;100242.03;5066760;28;20063;-38
2021/10/31 10:26:44;;;;;;;20.15;12.23;;;;;;;15.18;54.58;100233.91;5056995;28;20020;-38
2021/10/31 10:29:40;;;;;;;20.65;12.07;;;;;;;15.36;53.96;100227.72;5058886;28;20067;-38
2021/10/31 10:32:07;;;;;;;19.65;12.25;;;;;;;15.79;53.83;100216.09;5060765;28;20063;-38
2021/10/31 10:34:46;;;;;;;19.25;12.52;;;;;;;15.81;53.00;100213.19;5057625;28;20299;-39
2021/10/31 10:37:17;;;;;;;42.22;26.95;;;;;;;15.48;53.05;100219.78;5058513;28;20124;-38
2021/10/31 10:39:44;;;;;;;47.25;26.45;;;;;;;16.09;52.02;100206.41;5066474;28;20400;-39
2021/10/31 10:42:17;;;;;;;25.10;13.73;;;;;;;16.38;51.50;100210.13;5037560;28;20093;-38
2021/10/31 10:44:42;;;;;;;21.00;14.30;;;;;;;16.15;51.33;100200.97;5044741;28;20467;-39
2021/10/31 10:47:11;;;;;;;19.40;11.73;;;;;;;15.62;52.01;100194.41;5059089;28;20222;-39
2021/10/31 10:49:38;;;;;;;17.45;10.27;;;;;;;15.70;51.21;100197.84;5065805;28;20032;-38
2021/10/31 10:52:07;;;;;;;15.95;10.45;;;;;;;15.83;50.51;100195.00;5054001;28;20052;-38
2021/10/31 10:54:35;;;;;;;14.57;9.63;;;;;;;15.92;50.46;100199.00;5063464;28;20020;-37
2021/10/31 10:57:06;;;;;;;16.48;10.68;;;;;;;15.82;50.72;100185.31;5059453;28;20028;-38
2021/10/31 10:59:32;;;;;;;12.75;9.13;;;;;;;15.95;50.47;100184.31;5055991;28;20043;-38
2021/10/31 11:02:17;;;;;;;14.98;10.15;;;;;;;16.08;50.00;100180.63;5066729;28;20412;-38
2021/10/31 11:04:44;;;;;;;13.65;9.40;;;;;;;15.63;51.50;100179.97;5058320;28;20031;-38
2021/10/31 11:07:09;;;;;;;11.82;7.97;;;;;;;15.41;51.16;100171.56;5058750;28;20429;-38
2021/10/31 11:09:42;;;;;;;11.95;7.43;;;;;;;15.39;50.81;100175.53;5055297;28;20060;-38
2021/10/31 11:12:27;;;;;;;9.63;6.55;;;;;;;15.78;50.35;100168.88;5067048;28;20021;-38
2021/10/31 11:14:53;;;;;;;8.02;6.00;;;;;;;16.01;48.33;100165.44;5059291;28;20029;-37
2021/10/31 11:17:18;;;;;;;7.78;5.90;;;;;;;16.20;46.96;100149.25;5057216;28;20029;-39